createdAt,value
2022-12-14T00:01:20.815Z,11.80
2022-12-14T00:03:48.165Z,11.63
2022-12-14T00:06:17.151Z,13.48
2022-12-14T00:08:44.382Z,14.00
2022-12-14T00:11:11.226Z,11.70
2022-12-14T00:13:39.696Z,12.35
2022-12-14T00:16:07.966Z,13.63
2022-12-14T00:18:35.156Z,13.18
2022-12-14T00:21:06.245Z,12.60
2022-12-14T00:23:38.713Z,12.98
2022-12-14T00:26:10.525Z,12.75
2022-12-14T00:28:39.126Z,11.70
2022-12-14T00:31:06.325Z,12.75
2022-12-14T00:33:33.212Z,14.05
2022-12-14T00:36:00.429Z,12.70
2022-12-14T00:38:27.864Z,11.13
2022-12-14T00:40:55.369Z,11.80
2022-12-14T00:43:22.135Z,13.57
2022-12-14T00:45:50.926Z,11.55
2022-12-14T00:48:18.901Z,11.40
2022-12-14T00:50:48.489Z,9.48
2022-12-14T00:53:16.033Z,9.10
2022-12-14T00:55:49.279Z,11.85
2022-12-14T00:58:19.088Z,10.38
2022-12-14T01:00:46.483Z,12.68
2022-12-14T01:03:15.331Z,10.60
2022-12-14T01:05:42.175Z,13.82
2022-12-14T01:08:16.294Z,11.48
2022-12-14T01:10:43.140Z,10.30
2022-12-14T01:13:10.976Z,13.20
2022-12-14T01:15:37.814Z,11.57
2022-12-14T01:18:04.866Z,11.63
2022-12-14T01:20:32.985Z,11.15
2022-12-14T01:22:59.726Z,11.27
2022-12-14T01:25:26.474Z,10.93
2022-12-14T01:27:53.284Z,11.40
2022-12-14T01:30:20.247Z,11.20
2022-12-14T01:32:47.184Z,13.63
2022-12-14T01:35:14.130Z,12.13
2022-12-14T01:37:42.220Z,13.02
2022-12-14T01:40:09.717Z,11.45
2022-12-14T01:42:37.085Z,11.85
2022-12-14T01:45:05.551Z,14.98
2022-12-14T01:47:40.364Z,11.35
2022-12-14T01:50:15.712Z,14.40
2022-12-14T01:52:46.924Z,12.57
2022-12-14T01:55:18.678Z,11.23
2022-12-14T01:57:48.877Z,11.82
2022-12-14T02:00:16.345Z,13.20
2022-12-14T02:02:48.609Z,12.90
2022-12-14T02:05:18.187Z,10.65
2022-12-14T02:07:48.928Z,13.00
2022-12-14T02:10:16.414Z,10.88
2022-12-14T02:12:47.771Z,12.00
2022-12-14T02:15:15.533Z,11.95
2022-12-14T02:17:43.716Z,10.43
2022-12-14T02:20:11.618Z,10.35
2022-12-14T02:23:08.701Z,12.90
2022-12-14T02:26:06.361Z,9.60
2022-12-14T02:29:21.707Z,10.45
2022-12-14T02:31:57.883Z,10.65
2022-12-14T02:34:36.651Z,10.93
2022-12-14T02:37:10.795Z,9.13
2022-12-14T02:39:45.467Z,12.52
2022-12-14T02:42:14.646Z,10.48
2022-12-14T02:44:51.507Z,12.35
2022-12-14T02:47:24.224Z,11.35
2022-12-14T02:50:02.097Z,15.43
2022-12-14T02:52:38.369Z,9.82
2022-12-14T02:55:10.227Z,9.70
2022-12-14T02:57:40.723Z,13.05
2022-12-14T03:00:10.097Z,14.13
2022-12-14T03:02:39.597Z,12.20
2022-12-14T03:05:07.067Z,10.65
2022-12-14T03:07:41.954Z,10.23
2022-12-14T03:10:19.426Z,12.75
2022-12-14T03:12:51.722Z,11.63
2022-12-14T03:15:21.592Z,10.70
2022-12-14T03:17:52.749Z,10.93
2022-12-14T03:20:24.154Z,14.13
2022-12-14T03:22:56.383Z,10.02
2022-12-14T03:25:30.015Z,9.73
2022-12-14T03:28:02.119Z,11.93
2022-12-14T03:30:59.024Z,12.13
2022-12-14T03:33:24.334Z,13.07
2022-12-14T03:35:57.487Z,10.57
2022-12-14T03:38:30.905Z,10.60
2022-12-14T03:41:08.313Z,11.48
2022-12-14T03:43:42.249Z,11.77
2022-12-14T03:46:25.011Z,16.60
2022-12-14T03:48:54.487Z,11.07
2022-12-14T03:51:30.796Z,12.65
2022-12-14T03:54:06.265Z,12.02
2022-12-14T03:56:40.869Z,12.43
2022-12-14T03:59:12.623Z,9.85
2022-12-14T04:01:50.255Z,10.85
2022-12-14T04:04:22.013Z,10.00
2022-12-14T04:06:56.487Z,12.10
2022-12-14T04:09:31.191Z,8.82
2022-12-14T04:12:04.716Z,10.40
2022-12-14T04:14:34.933Z,12.13
2022-12-14T04:17:07.549Z,11.57
2022-12-14T04:19:40.451Z,10.20
2022-12-14T04:22:10.469Z,10.00
2022-12-14T04:24:41.621Z,12.77
2022-12-14T04:27:14.175Z,11.48
2022-12-14T04:29:47.423Z,10.15
2022-12-14T04:32:19.485Z,9.25
2022-12-14T04:34:49.593Z,8.50
2022-12-14T04:37:19.938Z,6.70
2022-12-14T04:39:51.070Z,9.32
2022-12-14T04:42:20.648Z,12.40
2022-12-14T04:44:50.356Z,12.73
2022-12-14T04:47:19.776Z,10.90
2022-12-14T04:49:50.538Z,11.25
2022-12-14T04:52:21.575Z,10.70
2022-12-14T04:54:51.081Z,12.10
2022-12-14T04:57:24.127Z,10.23
2022-12-14T04:59:51.509Z,15.15
2022-12-14T05:02:30.795Z,10.25
2022-12-14T05:05:07.638Z,13.68
2022-12-14T05:07:42.442Z,13.95
2022-12-14T05:10:14.128Z,12.43
2022-12-14T05:12:46.209Z,14.35
2022-12-14T05:15:16.959Z,10.07
2022-12-14T05:17:45.148Z,9.55
2022-12-14T05:20:16.611Z,11.45
2022-12-14T05:22:43.343Z,14.90
2022-12-14T05:25:10.305Z,12.18
2022-12-14T05:27:37.314Z,8.23
2022-12-14T05:30:05.391Z,9.65
2022-12-14T05:32:32.885Z,9.95
2022-12-14T05:35:01.279Z,11.65
2022-12-14T05:37:28.001Z,9.32
2022-12-14T05:39:54.763Z,13.18
2022-12-14T05:42:21.801Z,11.43
2022-12-14T05:44:48.514Z,13.45
2022-12-14T05:47:15.296Z,8.70
2022-12-14T05:49:42.027Z,13.30
2022-12-14T05:52:10.138Z,5.70
2022-12-14T05:54:37.008Z,13.93
2022-12-14T05:57:04.061Z,12.25
2022-12-14T05:59:30.980Z,10.82
2022-12-14T06:01:57.797Z,11.45
2022-12-14T06:04:24.630Z,12.02
2022-12-14T06:06:51.428Z,11.30
2022-12-14T06:09:19.941Z,10.00
2022-12-14T06:11:47.382Z,9.10
2022-12-14T06:14:14.470Z,9.95
2022-12-14T06:16:42.048Z,10.32
2022-12-14T06:19:09.315Z,11.00
2022-12-14T06:21:39.285Z,11.10
2022-12-14T06:24:07.081Z,10.80
2022-12-14T06:26:36.074Z,9.75
2022-12-14T06:29:03.630Z,10.30
2022-12-14T06:31:32.570Z,11.05
2022-12-14T06:34:01.240Z,10.73
2022-12-14T06:36:30.577Z,10.48
2022-12-14T06:39:00.737Z,11.20
2022-12-14T06:41:27.666Z,11.88
2022-12-14T06:43:55.755Z,10.55
2022-12-14T06:46:23.516Z,9.95
2022-12-14T06:48:51.321Z,10.70
2022-12-14T06:51:18.242Z,12.30
2022-12-14T06:53:45.040Z,12.48
2022-12-14T06:56:13.755Z,10.93
2022-12-14T06:58:41.214Z,10.82
2022-12-14T07:01:11.959Z,12.07
2022-12-14T07:03:39.161Z,13.02
2022-12-14T07:06:07.086Z,10.15
2022-12-14T07:08:35.870Z,12.60
2022-12-14T07:11:04.236Z,11.15
2022-12-14T07:13:31.150Z,14.15
2022-12-14T07:15:59.055Z,9.45
2022-12-14T07:18:28.357Z,11.23
2022-12-14T07:20:57.055Z,12.18
2022-12-14T07:23:27.885Z,10.80
2022-12-14T07:26:01.179Z,10.23
2022-12-14T07:28:28.430Z,10.05
2022-12-14T07:30:55.525Z,9.38
2022-12-14T07:33:22.527Z,14.07
2022-12-14T07:36:00.938Z,12.18
2022-12-14T07:38:27.649Z,11.20
2022-12-14T07:40:54.426Z,9.48
2022-12-14T07:43:21.153Z,8.75
2022-12-14T07:45:47.906Z,13.18
2022-12-14T07:48:14.614Z,10.95
2022-12-14T07:50:41.319Z,10.23
2022-12-14T07:53:09.533Z,12.90
2022-12-14T07:55:36.263Z,8.85
2022-12-14T07:58:03.011Z,11.65
2022-12-14T08:00:29.781Z,11.65
2022-12-14T08:02:56.670Z,11.48
2022-12-14T08:05:23.532Z,10.55
2022-12-14T08:07:50.460Z,10.90
2022-12-14T08:10:18.698Z,11.75
2022-12-14T08:12:45.505Z,11.52
2022-12-14T08:15:12.302Z,12.07
2022-12-14T08:17:39.121Z,9.75
2022-12-14T08:20:06.940Z,9.25
2022-12-14T08:22:33.768Z,10.43
2022-12-14T08:25:00.662Z,11.75
2022-12-14T08:27:30.217Z,10.93
2022-12-14T08:29:56.943Z,10.50
2022-12-14T08:32:23.750Z,10.35
2022-12-14T08:34:50.438Z,9.70
2022-12-14T08:37:17.216Z,8.70
2022-12-14T08:39:44.056Z,12.20
2022-12-14T08:42:16.213Z,8.95
2022-12-14T08:44:44.293Z,6.88
2022-12-14T08:47:11.076Z,9.48
2022-12-14T08:49:37.818Z,10.48
2022-12-14T08:52:04.737Z,23.02
2022-12-14T08:54:31.665Z,12.55
2022-12-14T08:56:58.391Z,14.13
2022-12-14T08:59:59.330Z,12.27
2022-12-14T09:02:13.308Z,12.30
2022-12-14T09:04:40.129Z,12.38
2022-12-14T09:07:06.842Z,12.43
2022-12-14T09:09:34.984Z,13.90
2022-12-14T09:12:01.871Z,11.40
2022-12-14T09:14:28.937Z,14.27
2022-12-14T09:16:55.652Z,13.20
2022-12-14T09:19:23.794Z,10.90
2022-12-14T09:21:50.558Z,13.63
2022-12-14T09:24:17.398Z,11.55
2022-12-14T09:26:44.183Z,13.85
2022-12-14T09:29:15.167Z,13.57
2022-12-14T09:31:42.164Z,13.13
2022-12-14T09:34:09.578Z,11.65
2022-12-14T09:36:38.404Z,13.40
2022-12-14T09:39:05.139Z,12.68
2022-12-14T09:41:46.216Z,13.60
2022-12-14T09:44:26.414Z,12.55
2022-12-14T09:47:00.621Z,17.08
2022-12-14T09:49:30.589Z,13.82
2022-12-14T09:52:01.525Z,9.73
2022-12-14T09:54:31.237Z,13.75
2022-12-14T09:57:00.874Z,9.88
2022-12-14T09:59:30.134Z,8.40
2022-12-14T10:02:29.836Z,13.05
2022-12-14T10:05:00.437Z,11.93
2022-12-14T10:07:35.245Z,7.85
2022-12-14T10:10:10.216Z,5.93
2022-12-14T10:12:49.503Z,12.48
2022-12-14T10:15:25.812Z,12.00
2022-12-14T10:18:49.425Z,13.82
2022-12-14T10:21:11.444Z,12.85
2022-12-14T10:23:41.797Z,12.55
2022-12-14T10:26:16.793Z,15.32
2022-12-14T10:28:48.062Z,13.52
2022-12-14T10:31:24.012Z,8.98
2022-12-14T10:33:51.713Z,12.82
2022-12-14T10:36:25.098Z,13.55
2022-12-14T10:38:58.747Z,14.88
2022-12-14T10:41:36.005Z,14.07
2022-12-14T10:44:12.680Z,14.75
2022-12-14T10:46:46.620Z,14.80
2022-12-14T10:49:18.305Z,13.57
2022-12-14T10:51:49.818Z,14.23
2022-12-14T10:54:28.013Z,14.82
2022-12-14T10:56:54.834Z,17.20
2022-12-14T10:59:39.852Z,12.70
2022-12-14T11:02:12.581Z,15.60
2022-12-14T11:04:44.659Z,13.73
2022-12-14T11:07:13.200Z,14.60
2022-12-14T11:09:42.220Z,14.50
2022-12-14T11:12:17.851Z,14.70
2022-12-14T11:14:52.778Z,15.98
2022-12-14T11:17:31.945Z,12.77
2022-12-14T11:20:20.426Z,12.10
2022-12-14T11:22:49.145Z,12.68
2022-12-14T11:25:33.415Z,15.15
2022-12-14T11:28:03.343Z,15.73
2022-12-14T11:30:30.174Z,16.15
2022-12-14T11:32:57.378Z,18.50
2022-12-14T11:35:24.144Z,17.70
2022-12-14T11:37:57.730Z,14.85
2022-12-14T11:40:26.955Z,16.05
2022-12-14T11:43:00.752Z,14.40
2022-12-14T11:45:32.978Z,13.70
2022-12-14T11:48:21.556Z,12.75
2022-12-14T11:50:49.710Z,13.35
2022-12-14T11:53:18.879Z,13.57
2022-12-14T11:55:50.387Z,11.82
2022-12-14T11:58:21.894Z,15.50
2022-12-14T12:00:51.136Z,14.02
2022-12-14T12:03:23.536Z,12.57
2022-12-14T12:05:51.929Z,15.35
2022-12-14T12:08:23.046Z,13.18
2022-12-14T12:10:52.118Z,13.27
2022-12-14T12:13:26.428Z,15.45
2022-12-14T12:15:55.858Z,14.27
2022-12-14T12:18:27.462Z,12.38
2022-12-14T12:20:59.462Z,13.60
2022-12-14T12:23:32.955Z,11.98
2022-12-14T12:26:12.500Z,13.82
2022-12-14T12:28:44.765Z,14.32
2022-12-14T12:31:16.311Z,11.68
2022-12-14T12:33:49.524Z,10.98
2022-12-14T12:36:23.547Z,13.35
2022-12-14T12:39:02.024Z,13.18
2022-12-14T12:41:34.261Z,14.68
2022-12-14T12:44:17.217Z,14.90
2022-12-14T12:47:23.119Z,14.25
2022-12-14T12:49:39.920Z,14.23
2022-12-14T12:52:18.981Z,12.85
2022-12-14T12:54:53.458Z,14.02
2022-12-14T12:57:22.146Z,12.68
2022-12-14T12:59:53.364Z,13.63
2022-12-14T13:02:28.686Z,13.60
2022-12-14T13:04:56.760Z,10.75
2022-12-14T13:07:31.962Z,12.93
2022-12-14T13:10:05.912Z,12.57
2022-12-14T13:12:37.349Z,12.98
2022-12-14T13:15:15.641Z,11.70
2022-12-14T13:17:45.831Z,12.55
2022-12-14T13:20:20.767Z,11.32
2022-12-14T13:22:48.666Z,14.88
2022-12-14T13:25:21.644Z,15.85
2022-12-14T13:28:07.365Z,14.60
2022-12-14T13:30:52.260Z,13.55
2022-12-14T13:33:46.575Z,17.92
2022-12-14T13:36:59.658Z,15.02
2022-12-14T13:39:46.553Z,18.50
2022-12-14T13:42:29.157Z,14.60
2022-12-14T13:44:58.674Z,13.52
2022-12-14T13:47:30.250Z,13.35
2022-12-14T13:52:48.870Z,14.32
2022-12-14T13:55:32.393Z,13.95
2022-12-14T13:58:15.572Z,15.05
2022-12-14T14:00:57.923Z,16.33
2022-12-14T14:03:45.865Z,16.00
2022-12-14T14:06:32.924Z,18.35
2022-12-14T14:09:19.673Z,16.00
2022-12-14T14:11:56.894Z,16.88
2022-12-14T14:14:44.908Z,20.48
2022-12-14T14:17:18.660Z,21.48
2022-12-14T14:19:49.374Z,16.50
2022-12-14T14:22:23.335Z,19.02
2022-12-14T14:25:00.145Z,18.38
2022-12-14T14:27:34.635Z,16.15
2022-12-14T14:30:01.406Z,15.68
2022-12-14T14:32:38.903Z,15.38
2022-12-14T14:35:20.352Z,16.23
2022-12-14T14:37:55.545Z,13.48
2022-12-14T14:40:50.963Z,12.65
2022-12-14T14:43:24.864Z,16.60
2022-12-14T14:45:54.860Z,16.38
2022-12-14T14:48:30.785Z,18.73
2022-12-14T14:51:16.330Z,16.02
2022-12-14T14:53:43.421Z,16.50
2022-12-14T14:56:32.313Z,15.35
2022-12-14T14:59:32.564Z,13.25
2022-12-14T15:02:02.920Z,13.30
2022-12-14T15:04:37.477Z,15.40
2022-12-14T15:07:08.249Z,13.55
2022-12-14T15:09:40.989Z,11.02
2022-12-14T15:12:21.919Z,15.05
2022-12-14T15:14:53.920Z,14.43
2022-12-14T15:17:22.413Z,15.93
2022-12-14T15:19:50.431Z,13.65
2022-12-14T15:22:21.339Z,12.70
2022-12-14T15:24:51.830Z,16.33
2022-12-14T15:27:24.455Z,12.13
2022-12-14T15:29:52.093Z,16.70
2022-12-14T15:32:23.166Z,17.40
2022-12-14T15:34:54.797Z,16.60
2022-12-14T15:37:29.516Z,13.88
2022-12-14T15:40:05.617Z,17.63
2022-12-14T15:42:32.501Z,15.15
2022-12-14T15:45:07.166Z,12.70
2022-12-14T15:47:33.925Z,16.00
2022-12-14T15:50:24.125Z,15.32
2022-12-14T15:52:54.610Z,14.50
2022-12-14T15:55:27.771Z,15.70
2022-12-14T15:57:54.976Z,13.65
2022-12-14T16:00:21.906Z,14.93
2022-12-14T16:02:49.419Z,12.10
2022-12-14T16:05:19.774Z,10.60
2022-12-14T16:07:50.294Z,13.18
2022-12-14T16:10:24.049Z,15.50
2022-12-14T16:12:55.020Z,15.80
2022-12-14T16:15:24.006Z,13.20
2022-12-14T16:17:59.218Z,14.60
2022-12-14T16:20:29.939Z,13.85
2022-12-14T16:22:59.402Z,14.85
2022-12-14T16:25:28.434Z,14.25
2022-12-14T16:27:55.527Z,15.02
2022-12-14T16:30:29.161Z,12.38
2022-12-14T16:33:13.586Z,15.77
2022-12-14T16:35:40.422Z,15.50
2022-12-14T16:38:10.453Z,11.98
2022-12-14T16:40:41.412Z,14.15
2022-12-14T16:43:26.232Z,13.13
2022-12-14T16:46:17.458Z,11.05
2022-12-14T16:49:18.049Z,13.15
2022-12-14T16:52:06.336Z,12.23
2022-12-14T16:54:33.909Z,12.05
2022-12-14T16:57:04.130Z,14.35
2022-12-14T16:59:40.366Z,14.88
2022-12-14T17:02:24.030Z,14.98
2022-12-14T17:04:51.104Z,15.48
2022-12-14T17:07:21.682Z,10.90
2022-12-14T17:09:48.806Z,14.95
2022-12-14T17:12:18.356Z,13.50
2022-12-14T17:14:49.982Z,15.43
2022-12-14T17:17:20.110Z,16.05
2022-12-14T17:19:46.903Z,13.82
2022-12-14T17:22:18.328Z,14.95
2022-12-14T17:24:45.139Z,12.93
2022-12-14T17:27:17.493Z,13.68
2022-12-14T17:29:44.396Z,12.60
2022-12-14T17:32:13.349Z,11.43
2022-12-14T17:34:40.115Z,13.77
2022-12-14T17:37:14.638Z,16.83
2022-12-14T17:39:41.479Z,18.23
2022-12-14T17:42:12.124Z,14.38
2022-12-14T17:44:41.893Z,16.10
2022-12-14T17:47:15.363Z,14.63
2022-12-14T17:49:42.259Z,12.90
2022-12-14T17:52:16.642Z,15.23
2022-12-14T17:54:43.359Z,14.98
2022-12-14T17:57:16.040Z,13.98
2022-12-14T17:59:47.488Z,16.42
2022-12-14T18:02:25.813Z,19.00
2022-12-14T18:04:52.736Z,16.27
2022-12-14T18:07:19.554Z,15.40
2022-12-14T18:09:46.434Z,16.60
2022-12-14T18:12:23.095Z,13.50
2022-12-14T18:14:52.120Z,16.90
2022-12-14T18:17:19.117Z,11.15
2022-12-14T18:19:49.662Z,15.60
2022-12-14T18:22:16.826Z,16.15
2022-12-14T18:24:43.719Z,17.42
2022-12-14T18:27:14.295Z,16.33
2022-12-14T18:29:41.140Z,15.00
2022-12-14T18:32:12.567Z,15.63
2022-12-14T18:34:39.403Z,16.65
2022-12-14T18:37:06.198Z,14.77
2022-12-14T18:39:32.997Z,18.58
2022-12-14T18:41:59.806Z,18.55
2022-12-14T18:44:26.881Z,16.58
2022-12-14T18:46:53.782Z,14.48
2022-12-14T18:49:21.996Z,20.30
2022-12-14T18:51:48.730Z,16.00
2022-12-14T18:54:15.482Z,21.00
2022-12-14T18:56:42.251Z,22.33
2022-12-14T18:59:08.986Z,25.23
2022-12-14T19:01:35.765Z,16.85
2022-12-14T19:04:02.696Z,20.00
2022-12-14T19:06:46.418Z,14.32
2022-12-14T19:09:13.609Z,14.50
2022-12-14T19:11:41.196Z,20.08
2022-12-14T19:14:08.151Z,19.08
2022-12-14T19:16:35.052Z,19.58
2022-12-14T19:19:02.052Z,17.92
2022-12-14T19:21:30.210Z,14.73
2022-12-14T19:23:57.194Z,16.15
2022-12-14T19:26:23.954Z,29.05
2022-12-14T19:28:50.722Z,19.70
2022-12-14T19:31:17.532Z,17.02
2022-12-14T19:33:44.302Z,14.50
2022-12-14T19:36:11.695Z,20.92
2022-12-14T19:38:39.857Z,16.27
2022-12-14T19:41:10.004Z,15.25
2022-12-14T19:43:36.837Z,21.70
2022-12-14T19:46:06.183Z,19.55
2022-12-14T19:48:32.985Z,24.70
2022-12-14T19:51:03.133Z,21.63
2022-12-14T19:53:31.517Z,17.67
2022-12-14T19:55:59.983Z,16.15
2022-12-14T19:58:27.304Z,23.13
2022-12-14T20:00:54.200Z,14.65
2022-12-14T20:03:21.696Z,20.85
2022-12-14T20:05:52.970Z,18.95
2022-12-14T20:08:19.873Z,17.58
2022-12-14T20:10:46.819Z,19.55
2022-12-14T20:13:15.092Z,13.80
2022-12-14T20:15:47.945Z,19.65
2022-12-14T20:18:14.861Z,18.70
2022-12-14T20:20:41.681Z,20.95
2022-12-14T20:23:08.395Z,12.48
2022-12-14T20:25:35.404Z,22.58
2022-12-14T20:28:02.293Z,22.20
2022-12-14T20:30:31.126Z,17.40
2022-12-14T20:32:58.069Z,20.77
2022-12-14T20:35:24.937Z,19.60
2022-12-14T20:37:52.878Z,15.43
2022-12-14T20:40:19.615Z,18.67
2022-12-14T20:42:46.333Z,20.58
2022-12-14T20:45:13.227Z,19.55
2022-12-14T20:47:41.311Z,17.95
2022-12-14T20:50:08.271Z,19.98
2022-12-14T20:52:35.059Z,17.17
2022-12-14T20:55:02.225Z,17.92
2022-12-14T20:57:30.311Z,22.77
2022-12-14T20:59:59.396Z,21.45
2022-12-14T21:02:26.532Z,22.98
2022-12-14T21:04:54.732Z,15.18
2022-12-14T21:07:26.130Z,14.07
2022-12-14T21:09:53.460Z,19.80
2022-12-14T21:12:20.212Z,25.92
2022-12-14T21:14:48.093Z,22.92
2022-12-14T21:17:15.058Z,28.33
2022-12-14T21:19:41.927Z,19.63
2022-12-14T21:22:13.688Z,21.27
2022-12-14T21:27:28.618Z,33.97
2022-12-14T21:29:55.455Z,25.63
2022-12-14T21:32:22.716Z,33.47
2022-12-14T21:34:49.881Z,36.78
2022-12-14T21:37:18.393Z,34.13
2022-12-14T21:39:52.373Z,28.75
2022-12-14T21:42:21.828Z,35.80
2022-12-14T21:44:50.518Z,31.42
2022-12-14T21:47:18.921Z,31.00
2022-12-14T21:49:46.194Z,29.20
2022-12-14T21:52:14.342Z,28.80
2022-12-14T21:54:42.734Z,17.45
2022-12-14T21:57:12.980Z,21.60
2022-12-14T21:59:41.777Z,20.95
2022-12-14T22:02:13.617Z,27.73
2022-12-14T22:04:40.559Z,17.50
2022-12-14T22:07:07.302Z,23.08
2022-12-14T22:09:34.164Z,16.02
2022-12-14T22:12:02.276Z,21.88
2022-12-14T22:14:29.010Z,22.25
2022-12-14T22:16:55.767Z,22.35
2022-12-14T22:19:24.212Z,32.58
2022-12-14T22:21:52.156Z,24.58
2022-12-14T22:24:20.255Z,26.08
2022-12-14T22:26:47.259Z,24.30
2022-12-14T22:29:17.221Z,22.13
2022-12-14T22:31:44.483Z,24.08
2022-12-14T22:34:15.140Z,19.30
2022-12-14T22:36:41.885Z,16.48
2022-12-14T22:39:09.677Z,19.08
2022-12-14T22:41:36.726Z,21.30
2022-12-14T22:44:05.034Z,22.15
2022-12-14T22:46:33.407Z,23.80
2022-12-14T22:49:00.815Z,30.58
2022-12-14T22:51:27.632Z,24.20
2022-12-14T22:53:54.493Z,25.88
2022-12-14T22:56:24.515Z,25.33
2022-12-14T22:58:56.155Z,26.42
2022-12-14T23:01:23.106Z,22.33
2022-12-14T23:03:52.723Z,27.27
2022-12-14T23:06:19.843Z,29.25
2022-12-14T23:08:48.240Z,21.52
2022-12-14T23:11:15.200Z,24.35
2022-12-14T23:13:41.935Z,22.23
2022-12-14T23:16:08.708Z,17.58
2022-12-14T23:18:35.487Z,20.83
2022-12-14T23:21:09.788Z,21.05
2022-12-14T23:23:38.200Z,20.40
2022-12-14T23:26:05.204Z,21.60
2022-12-14T23:28:32.145Z,17.60
2022-12-14T23:30:59.041Z,18.10
2022-12-14T23:33:25.872Z,16.92
2022-12-14T23:35:52.632Z,16.00
2022-12-14T23:38:20.715Z,17.95
2022-12-14T23:40:47.429Z,17.55
2022-12-14T23:43:16.722Z,18.13
2022-12-14T23:45:43.573Z,16.80
2022-12-14T23:48:10.360Z,14.77
2022-12-14T23:50:37.071Z,20.20
2022-12-14T23:53:07.183Z,29.13
2022-12-14T23:55:35.361Z,28.67
2022-12-14T23:58:02.207Z,27.90
